createdAt,value
2023-08-13T00:01:45.229Z,58.08
2023-08-13T00:12:09.988Z,65.20
2023-08-13T00:22:34.342Z,60.93
2023-08-13T00:32:58.614Z,59.34
2023-08-13T00:43:22.871Z,62.26
2023-08-13T00:53:47.837Z,59.59
2023-08-13T01:04:12.853Z,62.19
2023-08-13T01:14:57.227Z,59.42
2023-08-13T01:25:24.608Z,60.57
2023-08-13T01:35:49.209Z,63.27
2023-08-13T01:46:14.100Z,58.70
2023-08-13T01:56:38.001Z,60.60
2023-08-13T02:07:02.178Z,62.55
2023-08-13T02:17:26.893Z,59.99
2023-08-13T02:27:52.459Z,61.83
2023-08-13T02:38:16.465Z,59.02
2023-08-13T02:48:41.134Z,60.87
2023-08-13T02:59:05.161Z,63.58
2023-08-13T03:09:29.015Z,59.26
2023-08-13T03:19:53.476Z,62.20
2023-08-13T03:30:18.297Z,61.92
2023-08-13T03:40:42.880Z,60.81
2023-08-13T03:51:07.755Z,58.23
2023-08-13T04:01:31.644Z,59.84
2023-08-13T04:11:56.217Z,66.03
2023-08-13T04:22:22.318Z,63.57
2023-08-13T04:32:55.430Z,60.92
2023-08-13T04:43:21.092Z,60.93
2023-08-13T04:53:46.534Z,61.06
2023-08-13T05:04:10.597Z,61.15
2023-08-13T05:14:35.083Z,61.20
2023-08-13T05:24:59.864Z,61.01
2023-08-13T05:35:24.912Z,61.05
2023-08-13T05:45:49.780Z,60.83
2023-08-13T05:56:14.955Z,60.94
2023-08-13T06:06:38.912Z,61.24
2023-08-13T06:17:13.926Z,61.25
2023-08-13T06:27:39.682Z,60.86
2023-08-13T06:38:04.200Z,60.25
2023-08-13T06:48:29.672Z,60.18
2023-08-13T06:58:57.018Z,60.01
2023-08-13T07:09:21.562Z,59.79
2023-08-13T07:19:47.595Z,59.55
2023-08-13T07:30:16.829Z,59.02
2023-08-13T07:40:41.319Z,62.60
2023-08-13T07:51:05.689Z,60.06
2023-08-13T08:01:30.678Z,58.87
2023-08-13T08:11:57.670Z,62.72
2023-08-13T08:22:21.852Z,60.22
2023-08-13T08:32:46.711Z,56.31
2023-08-13T08:43:13.945Z,57.15
2023-08-13T08:53:39.790Z,58.87
2023-08-13T09:04:04.785Z,58.99
2023-08-13T09:14:28.755Z,59.95
2023-08-13T09:24:55.351Z,59.81
2023-08-13T09:35:19.648Z,59.25
2023-08-13T09:45:45.424Z,58.81
2023-08-13T09:56:16.445Z,57.88
2023-08-13T10:06:44.577Z,57.91
2023-08-13T10:17:10.222Z,57.90
2023-08-13T10:27:40.066Z,56.74
2023-08-13T10:38:12.853Z,56.03
2023-08-13T10:48:39.368Z,55.62
2023-08-13T10:59:03.894Z,54.85
2023-08-13T11:09:28.193Z,54.18
2023-08-13T11:19:57.119Z,53.29
2023-08-13T11:30:21.387Z,52.03
2023-08-13T11:40:46.580Z,51.52
2023-08-13T11:51:21.315Z,50.40
2023-08-13T12:01:58.035Z,49.00
2023-08-13T12:12:25.833Z,48.36
2023-08-13T12:22:53.373Z,47.83
2023-08-13T12:33:18.500Z,46.64
2023-08-13T12:43:42.898Z,46.04
2023-08-13T12:54:06.968Z,46.51
2023-08-13T13:04:31.393Z,46.16
2023-08-13T13:14:56.977Z,46.98
2023-08-13T13:25:21.094Z,47.09
2023-08-13T13:35:45.676Z,47.87
2023-08-13T13:46:10.469Z,48.10
2023-08-13T13:56:34.756Z,48.47
2023-08-13T14:07:00.073Z,47.91
2023-08-13T14:17:25.238Z,47.19
2023-08-13T14:27:49.539Z,46.73
2023-08-13T14:38:14.033Z,46.06
2023-08-13T14:48:38.532Z,45.87
2023-08-13T14:59:04.298Z,45.34
2023-08-13T15:09:28.317Z,44.93
2023-08-13T15:19:52.919Z,46.28
2023-08-13T15:30:17.336Z,46.91
2023-08-13T15:40:41.917Z,47.40
2023-08-13T15:51:06.496Z,47.45
2023-08-13T16:01:31.078Z,48.15
2023-08-13T16:12:08.604Z,49.04
2023-08-13T16:22:37.643Z,49.68
2023-08-13T16:33:03.076Z,50.32
2023-08-13T16:43:28.962Z,50.89
2023-08-13T16:53:53.782Z,51.49
2023-08-13T17:04:17.933Z,51.90
2023-08-13T17:14:42.351Z,52.18
2023-08-13T17:25:07.104Z,52.57
2023-08-13T17:35:31.159Z,52.97
2023-08-13T17:45:55.966Z,53.49
2023-08-13T17:56:21.697Z,54.07
2023-08-13T18:06:48.453Z,54.41
2023-08-13T18:17:14.764Z,54.71
2023-08-13T18:27:42.591Z,55.00
2023-08-13T18:38:08.428Z,55.64
2023-08-13T18:48:33.196Z,56.16
2023-08-13T18:58:57.481Z,56.58
2023-08-13T19:09:23.921Z,56.98
2023-08-13T19:19:48.121Z,57.47
2023-08-13T19:30:13.151Z,57.87
2023-08-13T19:40:40.528Z,58.31
2023-08-13T19:51:04.785Z,58.76
2023-08-13T20:01:47.859Z,59.15
2023-08-13T20:12:14.357Z,59.08
2023-08-13T20:22:51.048Z,59.86
2023-08-13T20:33:27.203Z,60.35
2023-08-13T20:43:51.792Z,60.78
2023-08-13T20:54:17.846Z,61.27
2023-08-13T21:04:42.483Z,70.32
2023-08-13T21:15:07.163Z,65.97
2023-08-13T21:25:31.349Z,62.25
2023-08-13T21:35:55.825Z,55.42
2023-08-13T21:46:19.938Z,55.04
2023-08-13T21:56:44.234Z,56.69
2023-08-13T22:07:08.805Z,58.56
2023-08-13T22:17:32.797Z,60.02
2023-08-13T22:27:56.979Z,69.48
2023-08-13T22:38:22.029Z,64.69
2023-08-13T22:48:45.554Z,56.01
2023-08-13T22:59:10.211Z,55.29
2023-08-13T23:09:34.584Z,57.56
2023-08-13T23:19:58.453Z,59.42
2023-08-13T23:30:22.623Z,69.11
2023-08-13T23:40:47.225Z,64.84
2023-08-13T23:51:11.418Z,61.40
